^^
Station Historical Data
 
Daily Summary for April 24, 2014 Units:  English    Metric   Both
« Previous Day
Next Day »
Daily Weekly Monthly Yearly Custom
  Current: High: Low: Average:
Temperature: 51.4 °F 63.5 °F 39.8 °F 52 °F
Dew Point: 26.0 °F 26.8 °F 9.0 °F 16.9 °F
Humidity: 37% 42% 17% 25%
Wind Speed: 0.0mph 20.7mph 1.2mph 7.3mph
Wind Gust: 0.0mph 20.7mph - -
WindCalm - - SSW
Pressure: 29.73 in 29.90 in 29.67 in -
Precipitation: 0.00 in      
Historical Graphs
 
 
Tabular Data for April 24, 2014
Time Temperature Dew Point Pressure Wind Wind Speed Wind Gust Humidity Rainfall Rate (Hourly)
00:02 48.3 °F 10.1 °F 29.67 in WNW 12.7 mph 12.7 mph 21% 0.01 in
00:07 48.3 °F 9.0 °F 29.67 in NW 11.5 mph 11.5 mph 20% 0.01 in
00:12 48.2 °F 10.0 °F 29.67 in North 14.0 mph 14.0 mph 21% 0.01 in
00:17 48.2 °F 10.0 °F 29.67 in NNW 13.0 mph 13.0 mph 21% 0.00 in
00:22 48.0 °F 9.9 °F 29.67 in NNW 14.0 mph 14.0 mph 21% 0.00 in
00:27 48.0 °F 9.9 °F 29.67 in West 16.1 mph 16.1 mph 21% 0.00 in
00:32 47.9 °F 9.8 °F 29.68 in NNW 10.4 mph 10.4 mph 21% 0.00 in
00:37 47.7 °F 10.6 °F 29.68 in NW 15.0 mph 15.0 mph 22% 0.00 in
00:42 47.6 °F 9.5 °F 29.68 in NNE 20.7 mph 20.7 mph 21% 0.00 in
00:47 47.6 °F 9.5 °F 29.68 in WNW 15.0 mph 15.0 mph 21% 0.00 in
00:52 47.4 °F 9.4 °F 29.69 in WNW 12.7 mph 12.7 mph 21% 0.00 in
00:57 47.3 °F 9.3 °F 29.69 in NW 19.6 mph 19.6 mph 21% 0.00 in
01:02 47.3 °F 9.3 °F 29.71 in WNW 19.6 mph 19.6 mph 21% 0.00 in
01:07 47.0 °F 10.1 °F 29.72 in NNW 15.0 mph 15.0 mph 22% 0.00 in
01:12 46.8 °F 10.9 °F 29.72 in NNW 11.5 mph 11.5 mph 23% 0.00 in
01:17 46.5 °F 9.6 °F 29.72 in North 12.7 mph 12.7 mph 22% 0.00 in
01:22 46.4 °F 9.6 °F 29.72 in NNW 17.3 mph 17.3 mph 22% 0.00 in
01:27 46.4 °F 10.5 °F 29.72 in NW 17.3 mph 17.3 mph 23% 0.00 in
01:32 46.2 °F 10.4 °F 29.72 in NW 14.0 mph 14.0 mph 23% 0.00 in
01:37 46.0 °F 10.2 °F 29.72 in NNW 18.4 mph 18.4 mph 23% 0.00 in
01:42 45.8 °F 10.0 °F 29.73 in NNE 19.6 mph 19.6 mph 23% 0.00 in
01:47 45.5 °F 10.7 °F 29.73 in NNW 13.8 mph 13.8 mph 24% 0.00 in
01:53 45.2 °F 11.4 °F 29.74 in NW 13.8 mph 13.8 mph 25% 0.00 in
01:58 44.8 °F 11.1 °F 29.74 in North 8.0 mph 8.0 mph 25% 0.00 in
02:03 44.3 °F 11.5 °F 29.74 in NNW 8.1 mph 8.1 mph 26% 0.00 in
02:08 44.2 °F 11.4 °F 29.74 in NW 10.4 mph 10.4 mph 26% 0.00 in
02:13 44.2 °F 10.5 °F 29.74 in NNW 16.1 mph 16.1 mph 25% 0.00 in
02:18 43.9 °F 11.2 °F 29.75 in NNW 11.5 mph 11.5 mph 26% 0.00 in
02:23 43.6 °F 10.9 °F 29.74 in NNW 7.0 mph 7.0 mph 26% 0.00 in
02:28 43.6 °F 10.9 °F 29.75 in NNW 11.5 mph 11.5 mph 26% 0.00 in
02:33 43.6 °F 10.0 °F 29.75 in NNW 16.1 mph 16.1 mph 25% 0.00 in
02:38 43.6 °F 10.9 °F 29.75 in NNW 12.7 mph 12.7 mph 26% 0.00 in
02:43 43.6 °F 11.8 °F 29.75 in NNW 10.4 mph 10.4 mph 27% 0.00 in
02:48 43.5 °F 11.7 °F 29.75 in WNW 13.8 mph 13.8 mph 27% 0.00 in
02:53 43.5 °F 11.7 °F 29.75 in NW 12.7 mph 12.7 mph 27% 0.00 in
02:58 43.3 °F 12.3 °F 29.76 in NNW 16.1 mph 16.1 mph 28% 0.00 in
03:03 43.2 °F 12.2 °F 29.76 in NNW 12.7 mph 12.7 mph 28% 0.00 in
03:08 43.1 °F 12.2 °F 29.76 in SSW 11.5 mph 11.5 mph 28% 0.00 in
03:13 43.1 °F 12.2 °F 29.76 in NNW 13.8 mph 13.8 mph 28% 0.00 in
03:18 43.1 °F 11.3 °F 29.76 in NNW 16.1 mph 16.1 mph 27% 0.00 in
03:23 43.1 °F 12.2 °F 29.76 in North 17.3 mph 17.3 mph 28% 0.00 in
03:28 43.2 °F 12.2 °F 29.76 in WSW 19.6 mph 19.6 mph 28% 0.00 in
03:33 43.1 °F 11.3 °F 29.77 in NNW 15.0 mph 15.0 mph 27% 0.00 in
03:38 42.9 °F 12.0 °F 29.76 in NNW 13.8 mph 13.8 mph 28% 0.00 in
03:43 42.9 °F 12.0 °F 29.77 in NNW 18.4 mph 18.4 mph 28% 0.00 in
03:48 42.8 °F 12.7 °F 29.77 in NNW 13.8 mph 13.8 mph 29% 0.00 in
03:53 42.6 °F 12.5 °F 29.77 in North 11.5 mph 11.5 mph 29% 0.00 in
03:58 42.6 °F 12.5 °F 29.77 in NNW 12.7 mph 12.7 mph 29% 0.00 in
04:03 42.5 °F 13.2 °F 29.82 in NNW 10.4 mph 10.4 mph 30% 0.00 in
04:08 42.5 °F 12.4 °F 29.82 in NNW 13.8 mph 13.8 mph 29% 0.00 in
04:13 42.6 °F 13.3 °F 29.83 in NW 12.0 mph 12.0 mph 30% 0.00 in
04:18 42.6 °F 13.3 °F 29.83 in NNW 11.5 mph 11.5 mph 30% 0.00 in
04:23 42.6 °F 12.5 °F 29.83 in North 11.5 mph 11.5 mph 29% 0.00 in
04:28 42.6 °F 12.5 °F 29.83 in NNW 13.8 mph 13.8 mph 29% 0.00 in
04:33 42.8 °F 12.7 °F 29.83 in WSW 10.4 mph 10.4 mph 29% 0.00 in
04:38 42.8 °F 12.7 °F 29.83 in NNW 12.7 mph 12.7 mph 29% 0.00 in
04:43 42.6 °F 12.5 °F 29.83 in NNW 17.3 mph 17.3 mph 29% 0.00 in
04:48 42.5 °F 13.2 °F 29.82 in NW 6.9 mph 6.9 mph 30% 0.00 in
04:53 42.2 °F 13.7 °F 29.82 in NW 6.9 mph 6.9 mph 31% 0.00 in
04:58 41.6 °F 15.3 °F 29.82 in North 5.8 mph 5.8 mph 34% 0.00 in
05:03 40.9 °F 15.3 °F 29.83 in North 4.6 mph 4.6 mph 35% 0.00 in
05:08 40.5 °F 15.6 °F 29.83 in NW 6.9 mph 6.9 mph 36% 0.00 in
05:13 40.2 °F 15.3 °F 29.84 in NNE 4.6 mph 4.6 mph 36% 0.00 in
05:18 40.1 °F 15.2 °F 29.84 in NW 4.0 mph 4.0 mph 36% 0.00 in
05:23 40.2 °F 14.7 °F 29.84 in NNW 4.6 mph 4.6 mph 35% 0.00 in
05:28 40.8 °F 13.9 °F 29.83 in NW 11.5 mph 11.5 mph 33% 0.00 in
05:33 41.3 °F 13.6 °F 29.83 in WNW 13.0 mph 13.0 mph 32% 0.00 in
05:38 41.6 °F 13.9 °F 29.83 in NNW 13.8 mph 13.8 mph 32% 0.00 in
05:43 41.8 °F 13.3 °F 29.83 in NW 11.5 mph 11.5 mph 31% 0.00 in
05:48 41.8 °F 14.1 °F 29.83 in NE 15.0 mph 15.0 mph 32% 0.00 in
05:53 41.5 °F 13.8 °F 29.83 in NNW 9.0 mph 9.0 mph 32% 0.00 in
05:58 41.2 °F 14.2 °F 29.83 in NNW 11.5 mph 11.5 mph 33% 0.00 in
06:03 41.1 °F 14.1 °F 29.85 in North 6.9 mph 6.9 mph 33% 0.00 in
06:08 40.9 °F 14.0 °F 29.86 in North 6.0 mph 6.0 mph 33% 0.00 in
06:13 40.9 °F 14.0 °F 29.86 in North 6.0 mph 6.0 mph 33% 0.00 in
06:18 40.9 °F 14.0 °F 29.77 in Calm     33% 0.00 in
06:23 40.9 °F 14.0 °F 29.77 in Calm     33% 0.00 in
06:28 40.9 °F 14.0 °F 29.77 in Calm     33% 0.00 in
06:33 39.8 °F 15.6 °F 29.87 in Calm     37% 0.00 in
06:38 39.8 °F 16.2 °F 29.87 in WNW 1.2 mph   38% 0.00 in
06:43 39.9 °F 16.3 °F 29.87 in NW 1.2 mph 1.2 mph 38% 0.00 in
06:48 40.1 °F 16.5 °F 29.87 in Calm   0.9 mph 38% 0.00 in
06:53 40.5 °F 16.9 °F 29.86 in WNW 2.3 mph   38% 0.00 in
06:58 41.1 °F 18.0 °F 29.87 in WNW 3.5 mph   39% 0.00 in
07:03 41.2 °F 18.7 °F 29.89 in WNW 1.2 mph   40% 0.00 in
07:08 41.2 °F 19.2 °F 29.90 in WNW 1.2 mph   41% 0.00 in
07:13 41.3 °F 18.2 °F 29.89 in WNW 2.3 mph 2.3 mph 39% 0.00 in
07:18 41.2 °F 18.7 °F 29.89 in WNW 3.5 mph 3.5 mph 40% 0.00 in
07:23 41.2 °F 18.7 °F 29.90 in WNW 1.2 mph 1.2 mph 40% 0.00 in
07:28 41.5 °F 18.9 °F 29.90 in SSW 3.0 mph 3.0 mph 40% 0.00 in
07:33 41.8 °F 20.4 °F 29.90 in SSW 1.2 mph 1.2 mph 42% 0.00 in
07:38 42.5 °F 20.4 °F 29.90 in SSW 3.0 mph 3.0 mph 41% 0.00 in
07:43 43.1 °F 19.2 °F 29.89 in WSW 4.6 mph 4.6 mph 38% 0.00 in
07:48 43.3 °F 18.1 °F 29.89 in WSW 3.5 mph 3.5 mph 36% 0.00 in
07:53 43.8 °F 17.9 °F 29.89 in WSW 3.5 mph 3.5 mph 35% 0.00 in
07:58 44.3 °F 17.0 °F 29.89 in WSW 3.5 mph 3.5 mph 33% 0.00 in
08:03 45.1 °F 16.2 °F 29.89 in WSW 3.5 mph   31% 0.00 in
08:08 45.7 °F 14.4 °F 29.88 in WSW 2.3 mph 2.5 mph 28% 0.00 in
08:13 46.0 °F 14.7 °F 29.89 in WSW 3.5 mph 3.5 mph 28% 0.00 in
08:18 46.2 °F 14.8 °F 29.88 in WSW 1.2 mph 1.2 mph 28% 0.00 in
08:23 46.8 °F 15.4 °F 29.88 in WSW 1.2 mph   28% 0.00 in
08:28 47.7 °F 15.3 °F 29.87 in WSW 3.5 mph 3.5 mph 27% 0.00 in
08:33 48.3 °F 16.7 °F 29.87 in WSW 3.5 mph 3.5 mph 28% 0.00 in
08:38 48.5 °F 16.8 °F 29.87 in WSW 1.2 mph 1.5 mph 28% 0.00 in
08:43 48.8 °F 17.9 °F 29.87 in WSW 3.5 mph 3.5 mph 29% 0.00 in
08:48 49.2 °F 15.7 °F 29.87 in WSW 1.2 mph 1.2 mph 26% 0.00 in
08:53 49.8 °F 17.1 °F 29.85 in WSW 2.3 mph   27% 0.00 in
08:58 50.4 °F 15.8 °F 29.85 in WSW 1.2 mph 1.2 mph 25% 0.00 in
09:03 50.8 °F 17.1 °F 29.86 in WSW 3.5 mph 3.5 mph 26% 0.00 in
09:08 51.0 °F 17.3 °F 29.87 in WSW 2.0 mph 2.0 mph 26% 0.00 in
09:13 51.3 °F 19.3 °F 29.87 in WSW 2.3 mph 2.3 mph 28% 0.00 in
09:18 51.4 °F 15.8 °F 29.87 in WSW 1.2 mph   24% 0.00 in
09:23 51.7 °F 17.0 °F 29.86 in WSW 2.3 mph   25% 0.00 in
09:28 52.0 °F 16.3 °F 29.86 in WSW 1.2 mph   24% 0.00 in
09:33 51.7 °F 15.0 °F 29.86 in South 4.6 mph 4.6 mph 23% 0.00 in
09:38 50.8 °F 14.3 °F 29.87 in South 3.5 mph 3.5 mph 23% 0.00 in
09:43 50.8 °F 17.1 °F 29.86 in South 3.0 mph 3.0 mph 26% 0.00 in
09:48 51.4 °F 16.7 °F 29.86 in South 3.5 mph 3.5 mph 25% 0.00 in
09:53 52.2 °F 15.5 °F 29.85 in South 3.5 mph 3.5 mph 23% 0.00 in
09:58 52.9 °F 18.9 °F 29.86 in South 3.5 mph 3.5 mph 26% 0.00 in
10:03 52.2 °F 13.4 °F 29.85 in SSE 6.9 mph 6.9 mph 21% 0.00 in
10:08 51.6 °F 15.9 °F 29.86 in SSE 4.6 mph 4.6 mph 24% 0.00 in
10:13 52.2 °F 15.5 °F 29.86 in SSE 2.3 mph 2.3 mph 23% 0.00 in
10:18 52.6 °F 17.7 °F 29.85 in SSE 3.5 mph 3.5 mph 25% 0.00 in
10:23 53.2 °F 15.3 °F 29.85 in South 3.5 mph 3.5 mph 22% 0.00 in
10:28 53.5 °F 16.6 °F 29.84 in South 1.2 mph 1.2 mph 23% 0.00 in
10:33 54.2 °F 17.1 °F 29.84 in SE 4.6 mph 4.6 mph 23% 0.00 in
10:38 53.5 °F 16.6 °F 29.84 in SE 4.6 mph 4.6 mph 23% 0.00 in
10:43 53.3 °F 16.4 °F 29.85 in SE 5.8 mph 5.8 mph 23% 0.00 in
10:48 52.9 °F 15.0 °F 29.85 in ESE 4.6 mph 4.6 mph 22% 0.00 in
10:53 52.6 °F 17.7 °F 29.84 in East 3.5 mph 3.5 mph 25% 0.00 in
10:58 53.6 °F 16.6 °F 29.83 in SSW 4.6 mph 4.6 mph 23% 0.00 in
11:03 54.1 °F 17.1 °F 29.83 in South 6.9 mph 6.9 mph 23% 0.00 in
11:08 54.7 °F 18.6 °F 29.83 in SSE 2.3 mph 3.2 mph 24% 0.00 in
11:13 54.4 °F 18.3 °F 29.83 in ESE 4.6 mph 4.6 mph 24% 0.00 in
11:18 54.4 °F 17.3 °F 29.83 in SSE 10.4 mph 10.4 mph 23% 0.00 in
11:23 54.5 °F 15.3 °F 29.83 in South 5.8 mph 5.8 mph 21% 0.00 in
11:28 55.4 °F 17.1 °F 29.83 in SSW 3.5 mph 3.5 mph 22% 0.00 in
11:33 56.3 °F 19.9 °F 29.81 in ESE 10.4 mph 10.4 mph 24% 0.00 in
11:38 55.6 °F 18.3 °F 29.81 in ESE 7.0 mph 7.0 mph 23% 0.00 in
11:43 55.3 °F 14.8 °F 29.82 in East 3.5 mph 3.5 mph 20% 0.00 in
11:48 55.6 °F 17.3 °F 29.80 in South 3.5 mph 4.7 mph 22% 0.00 in
11:53 55.7 °F 16.3 °F 29.80 in SE 8.1 mph 8.1 mph 21% 0.00 in
11:58 55.9 °F 14.2 °F 29.80 in SE 6.9 mph 6.9 mph 19% 0.00 in
12:03 55.9 °F 19.6 °F 29.80 in East 4.0 mph 4.0 mph 24% 0.00 in
12:08 55.9 °F 16.5 °F 29.80 in ESE 3.5 mph 3.5 mph 21% 0.00 in
12:13 56.5 °F 17.0 °F 29.78 in SSW 9.2 mph 9.2 mph 21% 0.00 in
12:18 57.0 °F 17.4 °F 29.78 in SE 4.6 mph 4.6 mph 21% 0.00 in
12:23 57.0 °F 17.4 °F 29.78 in SSE 3.5 mph 5.2 mph 21% 0.00 in
12:28 57.3 °F 17.6 °F 29.77 in SE 6.9 mph 6.9 mph 21% 0.00 in
12:33 57.5 °F 15.5 °F 29.77 in ESE 9.2 mph 9.2 mph 19% 0.00 in
12:38 57.6 °F 15.6 °F 29.77 in SSE 9.2 mph 9.2 mph 19% 0.00 in
12:41 57.6 °F 16.8 °F 29.77 in SE 5.8 mph 5.8 mph 20% 0.00 in
12:46 57.5 °F 16.7 °F 29.76 in SE 9.2 mph 9.2 mph 20% 0.00 in
12:51 58.1 °F 16.0 °F 29.76 in SE 10.4 mph 10.4 mph 19% 0.00 in
12:56 58.6 °F 17.6 °F 29.75 in SE 9.0 mph 9.0 mph 20% 0.00 in
13:01 58.9 °F 17.8 °F 29.75 in East 5.0 mph 5.0 mph 20% 0.00 in
13:06 59.0 °F 15.5 °F 29.76 in SSE 11.5 mph 11.5 mph 18% 0.00 in
13:11 59.8 °F 16.1 °F 29.75 in South 9.2 mph 9.2 mph 18% 0.00 in
13:16 59.9 °F 16.2 °F 29.75 in SSE 3.5 mph 3.5 mph 18% 0.00 in
13:21 60.9 °F 17.0 °F 29.74 in SSW 8.1 mph 8.1 mph 18% 0.00 in
13:26 60.9 °F 17.0 °F 29.74 in SE 6.9 mph 6.9 mph 18% 0.00 in
13:31 60.4 °F 19.1 °F 29.75 in East 3.5 mph 3.5 mph 20% 0.00 in
13:36 59.9 °F 14.9 °F 29.75 in SE 5.8 mph 5.8 mph 17% 0.00 in
13:41 59.6 °F 14.7 °F 29.75 in SSE 10.4 mph 10.4 mph 17% 0.00 in
13:46 60.1 °F 18.8 °F 29.74 in ESE 4.6 mph 4.6 mph 20% 0.00 in
13:51 60.1 °F 16.4 °F 29.74 in SE 5.8 mph 5.8 mph 18% 0.00 in
13:56 60.2 °F 16.5 °F 29.74 in SE 5.8 mph 5.8 mph 18% 0.00 in
14:01 59.5 °F 17.1 °F 29.74 in SSE 6.9 mph 6.9 mph 19% 0.00 in
14:06 59.9 °F 16.2 °F 29.74 in SE 8.0 mph 8.0 mph 18% 0.00 in
14:11 59.8 °F 17.4 °F 29.74 in SSE 10.4 mph 10.4 mph 19% 0.00 in
14:16 59.3 °F 18.2 °F 29.74 in SSE 3.5 mph 3.5 mph 20% 0.00 in
14:21 59.3 °F 15.7 °F 29.74 in SE 3.5 mph 3.5 mph 18% 0.00 in
14:26 59.0 °F 16.7 °F 29.74 in ESE 3.5 mph 3.5 mph 19% 0.00 in
14:31 59.3 °F 17.0 °F 29.74 in ESE 6.9 mph 6.9 mph 19% 0.00 in
14:36 59.3 °F 17.0 °F 29.74 in ESE 4.6 mph 4.6 mph 19% 0.00 in
14:41 59.8 °F 18.6 °F 29.74 in SSE 5.8 mph 5.8 mph 20% 0.00 in
14:46 60.4 °F 16.6 °F 29.73 in South 6.9 mph 6.9 mph 18% 0.00 in
14:51 60.9 °F 18.3 °F 29.72 in Calm     19% 0.00 in
14:56 61.3 °F 18.6 °F 29.72 in SSE 2.3 mph 2.3 mph 19% 0.00 in
15:01 61.3 °F 18.6 °F 29.71 in SSW 3.5 mph 3.5 mph 19% 0.00 in
15:06 61.3 °F 17.4 °F 29.71 in SE 5.8 mph 5.8 mph 18% 0.00 in
15:11 62.0 °F 19.2 °F 29.71 in Calm     19% 0.00 in
15:16 62.4 °F 19.5 °F 29.71 in SSE 5.8 mph 5.8 mph 19% 0.00 in
15:21 62.6 °F 18.4 °F 29.70 in NE 4.6 mph 4.6 mph 18% 0.00 in
15:26 62.6 °F 19.7 °F 29.69 in NE 3.5 mph 3.5 mph 19% 0.00 in
15:31 62.4 °F 19.5 °F 29.69 in ESE 3.5 mph 3.5 mph 19% 0.00 in
15:36 62.9 °F 20.0 °F 29.69 in NE 5.0 mph 5.0 mph 19% 0.00 in
15:41 62.9 °F 18.7 °F 29.68 in ENE 4.6 mph 4.6 mph 18% 0.00 in
15:46 62.9 °F 20.0 °F 29.68 in SE 13.8 mph 13.8 mph 19% 0.00 in
15:51 62.9 °F 18.7 °F 29.68 in East 9.2 mph 9.2 mph 18% 0.00 in
15:56 62.9 °F 20.0 °F 29.68 in NE 9.2 mph 9.2 mph 19% 0.00 in
16:01 63.1 °F 18.9 °F 29.68 in East 6.9 mph 6.9 mph 18% 0.00 in
16:06 62.9 °F 20.0 °F 29.69 in East 6.9 mph 6.9 mph 19% 0.00 in
16:11 63.2 °F 21.4 °F 29.69 in East 3.5 mph 3.5 mph 20% 0.00 in
16:16 63.4 °F 19.1 °F 29.69 in NE 5.8 mph 5.8 mph 18% 0.00 in
16:21 63.5 °F 20.5 °F 29.69 in ESE 7.0 mph 7.0 mph 19% 0.00 in
16:26 63.5 °F 21.7 °F 29.69 in ENE 8.0 mph 8.0 mph 20% 0.00 in
16:31 63.5 °F 20.5 °F 29.69 in ESE 12.7 mph 12.7 mph 19% 0.00 in
16:36 63.4 °F 20.4 °F 29.69 in East 10.4 mph 10.4 mph 19% 0.00 in
16:41 63.5 °F 20.5 °F 29.69 in East 9.2 mph 9.2 mph 19% 0.00 in
16:46 63.4 °F 20.4 °F 29.68 in SE 9.2 mph 9.2 mph 19% 0.00 in
16:51 63.5 °F 20.5 °F 29.68 in ESE 11.5 mph 11.5 mph 19% 0.00 in
16:56 63.5 °F 19.2 °F 29.68 in SE 10.4 mph 10.4 mph 18% 0.00 in
17:01 63.4 °F 19.1 °F 29.69 in East 4.6 mph 4.6 mph 18% 0.00 in
17:06 63.5 °F 20.5 °F 29.69 in ESE 10.4 mph 10.4 mph 19% 0.00 in
17:11 63.2 °F 20.2 °F 29.68 in ENE 6.0 mph 6.0 mph 19% 0.00 in
17:16 63.5 °F 20.5 °F 29.69 in East 9.2 mph 9.2 mph 19% 0.00 in
17:21 63.5 °F 21.7 °F 29.69 in SE 8.1 mph 8.1 mph 20% 0.00 in
17:26 63.4 °F 21.6 °F 29.69 in ESE 11.5 mph 11.5 mph 20% 0.00 in
17:31 62.9 °F 20.0 °F 29.69 in East 5.8 mph 5.8 mph 19% 0.00 in
17:36 62.4 °F 19.5 °F 29.69 in East 4.6 mph 4.6 mph 19% 0.00 in
17:41 62.4 °F 20.8 °F 29.69 in ESE 3.5 mph 3.5 mph 20% 0.00 in
17:46 62.4 °F 20.8 °F 29.70 in ESE 3.5 mph 3.5 mph 20% 0.00 in
17:51 62.3 °F 20.7 °F 29.69 in SE 6.9 mph 6.9 mph 20% 0.00 in
17:56 62.1 °F 21.7 °F 29.69 in SE 3.5 mph 3.5 mph 21% 0.00 in
18:01 61.8 °F 22.5 °F 29.69 in SE 3.5 mph 3.5 mph 22% 0.00 in
18:06 61.6 °F 21.2 °F 29.69 in SE 3.5 mph 3.5 mph 21% 0.00 in
18:11 61.6 °F 21.2 °F 29.69 in ESE 5.8 mph 5.8 mph 21% 0.00 in
18:16 61.5 °F 22.3 °F 29.69 in SE 5.8 mph 5.8 mph 22% 0.00 in
18:21 61.5 °F 23.3 °F 29.70 in ESE 3.5 mph 3.5 mph 23% 0.00 in
18:26 61.3 °F 23.1 °F 29.70 in ESE 3.5 mph 3.5 mph 23% 0.00 in
18:31 61.3 °F 25.1 °F 29.69 in ESE 3.5 mph 3.5 mph 25% 0.00 in
18:36 61.2 °F 24.1 °F 29.70 in ESE 3.5 mph 3.5 mph 24% 0.00 in
18:41 61.3 °F 25.1 °F 29.69 in ESE 3.5 mph 3.5 mph 25% 0.00 in
18:46 61.0 °F 23.9 °F 29.69 in ESE 4.6 mph 4.6 mph 24% 0.00 in
18:51 60.7 °F 24.6 °F 29.69 in ESE 3.5 mph 3.5 mph 25% 0.00 in
18:56 60.5 °F 24.5 °F 29.69 in SE 3.5 mph 3.5 mph 25% 0.00 in
19:01 60.5 °F 24.5 °F 29.69 in ESE 6.9 mph 6.9 mph 25% 0.00 in
19:06 60.2 °F 25.1 °F 29.69 in SE 3.5 mph 3.5 mph 26% 0.00 in
19:11 59.8 °F 25.7 °F 29.69 in SE 5.8 mph 5.8 mph 27% 0.00 in
19:16 59.3 °F 25.3 °F 29.69 in SE 4.0 mph 4.0 mph 27% 0.00 in
19:21 59.0 °F 25.0 °F 29.69 in SE 3.5 mph 3.5 mph 27% 0.00 in
19:26 58.7 °F 24.8 °F 29.69 in SE 4.6 mph 4.6 mph 27% 0.00 in
19:31 58.4 °F 25.4 °F 29.69 in SE 3.5 mph 3.5 mph 28% 0.00 in
19:36 58.0 °F 25.0 °F 29.70 in SE 3.5 mph 3.5 mph 28% 0.00 in
19:41 57.3 °F 25.3 °F 29.70 in SE 4.0 mph 4.0 mph 29% 0.00 in
19:46 56.7 °F 25.6 °F 29.70 in SE 3.5 mph 3.5 mph 30% 0.00 in
19:51 56.0 °F 26.5 °F 29.72 in SE 1.2 mph 1.2 mph 32% 0.00 in
19:56 55.1 °F 26.5 °F 29.72 in Calm     33% 0.00 in
20:01 54.7 °F 26.8 °F 29.72 in SE 3.5 mph 3.5 mph 34% 0.00 in
20:06 54.4 °F 26.6 °F 29.69 in SE 1.2 mph 1.2 mph 34% 0.00 in
20:11 54.2 °F 26.4 °F 29.70 in SE 3.5 mph 3.5 mph 34% 0.00 in
20:16 54.1 °F 26.3 °F 29.71 in SE 2.3 mph 2.3 mph 34% 0.00 in
20:21 53.8 °F 26.8 °F 29.71 in SE 3.5 mph 3.5 mph 35% 0.00 in
20:26 53.3 °F 26.3 °F 29.71 in SE 1.2 mph 1.2 mph 35% 0.00 in
20:35 52.3 °F 26.1 °F 29.70 in Calm     36% 0.00 in
20:40 51.7 °F 26.2 °F 29.72 in SE 2.3 mph 2.3 mph 37% 0.00 in
20:45 51.4 °F 26.0 °F 29.72 in Calm     37% 0.00 in
20:50 51.4 °F 26.0 °F 29.73 in Calm     37% 0.00 in
Windsor CO Weather
Compliments of Weather Underground